createdAt,value
2019-02-08T00:02:13.848Z,84.17
2019-02-08T00:04:45.498Z,77.27
2019-02-08T00:07:21.958Z,80.77
2019-02-08T00:09:53.560Z,83.70
2019-02-08T00:12:26.700Z,82.67
2019-02-08T00:14:58.540Z,83.10
2019-02-08T00:17:30.685Z,79.97
2019-02-08T00:20:03.474Z,76.30
2019-02-08T00:22:36.318Z,81.23
2019-02-08T00:25:12.400Z,74.00
2019-02-08T00:27:43.953Z,79.87
2019-02-08T00:30:20.458Z,75.83
2019-02-08T00:32:52.761Z,78.43
2019-02-08T00:35:25.025Z,75.50
2019-02-08T00:37:56.579Z,69.67
2019-02-08T00:40:28.798Z,75.57
2019-02-08T00:43:00.828Z,70.93
2019-02-08T00:45:32.388Z,69.33
2019-02-08T00:48:03.822Z,73.60
2019-02-08T00:50:35.192Z,69.30
2019-02-08T00:53:06.639Z,74.77
2019-02-08T00:55:39.959Z,70.73
2019-02-08T00:58:11.704Z,71.67
2019-02-08T01:00:43.737Z,69.57
2019-02-08T01:03:16.949Z,73.27
2019-02-08T01:05:48.863Z,66.57
2019-02-08T01:08:20.634Z,70.13
2019-02-08T01:10:55.270Z,70.63
2019-02-08T01:13:28.484Z,66.93
2019-02-08T01:15:59.718Z,62.67
2019-02-08T01:18:33.156Z,71.40
2019-02-08T01:21:05.104Z,65.13
2019-02-08T01:23:41.004Z,66.53
2019-02-08T01:26:09.766Z,67.67
2019-02-08T01:28:41.879Z,62.53
2019-02-08T01:31:13.339Z,63.63
2019-02-08T01:33:45.171Z,61.47
2019-02-08T01:36:16.904Z,60.60
2019-02-08T01:38:48.418Z,63.00
2019-02-08T01:41:19.931Z,56.57
2019-02-08T01:43:58.279Z,59.27
2019-02-08T01:46:29.780Z,55.27
2019-02-08T01:49:01.250Z,55.60
2019-02-08T01:51:32.854Z,53.87
2019-02-08T01:54:04.529Z,53.23
2019-02-08T01:56:37.539Z,56.03
2019-02-08T01:59:09.539Z,52.77
2019-02-08T02:01:41.296Z,52.77
2019-02-08T02:04:14.051Z,49.27
2019-02-08T02:06:45.781Z,51.80
2019-02-08T02:09:17.318Z,57.87
2019-02-08T02:11:49.044Z,47.80
2019-02-08T02:14:22.040Z,54.80
2019-02-08T02:16:57.681Z,50.90
2019-02-08T02:19:29.546Z,50.97
2019-02-08T02:22:01.005Z,50.83
2019-02-08T02:24:34.291Z,52.87
2019-02-08T02:27:05.952Z,47.10
2019-02-08T02:29:38.175Z,49.17
2019-02-08T02:32:11.439Z,44.90
2019-02-08T02:34:43.144Z,44.60
2019-02-08T02:37:15.745Z,47.87
2019-02-08T02:39:51.097Z,44.20
2019-02-08T02:42:23.775Z,44.10
2019-02-08T02:44:55.339Z,41.03
2019-02-08T02:47:28.128Z,41.70
2019-02-08T02:50:02.003Z,42.80
2019-02-08T02:52:34.100Z,39.43
2019-02-08T02:55:06.566Z,40.53
2019-02-08T02:57:38.250Z,38.53
2019-02-08T03:00:23.163Z,41.80
2019-02-08T03:02:55.082Z,41.77
2019-02-08T03:05:26.849Z,41.83
2019-02-08T03:07:58.468Z,40.03
2019-02-08T03:10:30.580Z,39.43
2019-02-08T03:13:01.985Z,42.90
2019-02-08T03:15:34.589Z,39.97
2019-02-08T03:18:07.443Z,39.63
2019-02-08T03:20:39.329Z,41.57
2019-02-08T03:23:11.650Z,44.43
2019-02-08T03:25:43.390Z,36.23
2019-02-08T03:28:15.008Z,44.97
2019-02-08T03:30:51.806Z,40.97
2019-02-08T03:33:24.049Z,41.30
2019-02-08T03:35:55.386Z,38.30
2019-02-08T03:38:27.248Z,35.73
2019-02-08T03:41:00.405Z,41.13
2019-02-08T03:43:31.767Z,36.37
2019-02-08T03:46:05.457Z,36.10
2019-02-08T03:48:37.080Z,39.57
2019-02-08T03:51:08.820Z,39.97
2019-02-08T03:53:40.385Z,35.50
2019-02-08T03:56:13.349Z,40.00
2019-02-08T03:58:44.911Z,38.40
2019-02-08T04:01:19.447Z,34.87
2019-02-08T04:03:51.531Z,35.63
2019-02-08T04:06:23.476Z,35.90
2019-02-08T04:08:54.868Z,35.57
2019-02-08T04:11:26.780Z,36.07
2019-02-08T04:13:58.102Z,36.20
2019-02-08T04:16:29.609Z,38.00
2019-02-08T04:19:01.293Z,36.17
2019-02-08T04:21:34.252Z,37.43
2019-02-08T04:24:05.673Z,35.40
2019-02-08T04:26:38.601Z,34.97
2019-02-08T04:29:12.247Z,39.00
2019-02-08T04:31:44.053Z,34.97
2019-02-08T04:34:15.467Z,38.67
2019-02-08T04:36:46.827Z,33.77
2019-02-08T04:39:19.155Z,40.00
2019-02-08T04:41:50.832Z,37.60
2019-02-08T04:44:23.526Z,41.70
2019-02-08T04:46:55.158Z,36.00
2019-02-08T04:49:26.610Z,37.27
2019-02-08T04:52:00.191Z,38.77
2019-02-08T04:54:38.280Z,41.90
2019-02-08T04:57:04.986Z,38.13
2019-02-08T04:59:36.636Z,39.90
2019-02-08T05:02:08.006Z,40.03
2019-02-08T05:04:39.803Z,36.60
2019-02-08T05:07:11.479Z,36.07
2019-02-08T05:09:42.826Z,38.70
2019-02-08T05:12:14.290Z,39.43
2019-02-08T05:14:45.761Z,39.77
2019-02-08T05:17:17.439Z,39.10
2019-02-08T05:19:48.763Z,41.57
2019-02-08T05:22:25.604Z,40.07
2019-02-08T05:24:58.860Z,36.57
2019-02-08T05:27:30.378Z,39.83
2019-02-08T05:30:02.033Z,37.57
2019-02-08T05:32:34.026Z,40.87
2019-02-08T05:35:06.126Z,38.27
2019-02-08T05:37:37.714Z,37.80
2019-02-08T05:40:10.977Z,40.30
2019-02-08T05:42:43.083Z,38.47
2019-02-08T05:45:15.990Z,41.13
2019-02-08T05:47:47.491Z,39.83
2019-02-08T05:50:22.681Z,39.37
2019-02-08T05:52:55.108Z,34.87
2019-02-08T05:55:29.090Z,36.60
2019-02-08T05:58:00.977Z,36.93
2019-02-08T06:00:48.002Z,43.50
2019-02-08T06:03:19.673Z,40.90
2019-02-08T06:05:51.648Z,39.63
2019-02-08T06:08:23.353Z,39.00
2019-02-08T06:10:55.097Z,37.97
2019-02-08T06:13:30.094Z,40.83
2019-02-08T06:16:01.866Z,44.50
2019-02-08T06:18:33.249Z,38.63
2019-02-08T06:21:06.536Z,41.90
2019-02-08T06:23:38.369Z,40.17
2019-02-08T06:26:13.439Z,43.27
2019-02-08T06:28:47.003Z,41.43
2019-02-08T06:31:18.427Z,43.13
2019-02-08T06:33:55.991Z,42.50
2019-02-08T06:36:27.503Z,40.30
2019-02-08T06:38:59.295Z,39.07
2019-02-08T06:41:31.316Z,42.87
2019-02-08T06:44:04.740Z,34.80
2019-02-08T06:46:36.317Z,41.13
2019-02-08T06:49:08.111Z,40.90
2019-02-08T06:51:41.805Z,41.77
2019-02-08T06:54:13.354Z,42.87
2019-02-08T06:57:10.605Z,39.47
2019-02-08T06:59:54.357Z,42.48
2019-02-08T07:03:10.505Z,42.20
2019-02-08T07:05:59.547Z,38.47
2019-02-08T07:08:39.210Z,41.93
2019-02-08T07:11:35.683Z,40.53
2019-02-08T07:14:35.829Z,39.30
2019-02-08T07:17:21.036Z,37.40
2019-02-08T07:20:06.882Z,39.13
2019-02-08T07:23:08.824Z,42.67
2019-02-08T07:26:05.080Z,44.80
2019-02-08T07:29:01.718Z,41.23
2019-02-08T07:31:52.358Z,49.70
2019-02-08T07:34:32.808Z,42.60
2019-02-08T07:37:14.371Z,45.20
2019-02-08T07:40:13.884Z,45.87
2019-02-08T07:43:04.597Z,43.47
2019-02-08T07:45:50.375Z,41.17
2019-02-08T07:48:33.729Z,49.40
2019-02-08T07:51:39.842Z,39.20
2019-02-08T07:54:30.697Z,40.50
2019-02-08T07:57:12.755Z,39.67
2019-02-08T08:00:09.853Z,43.23
2019-02-08T08:02:54.307Z,36.53
2019-02-08T08:05:35.391Z,36.80
2019-02-08T08:08:26.118Z,34.53
2019-02-08T08:11:31.734Z,36.07
2019-02-08T08:14:21.346Z,43.47
2019-02-08T08:17:31.434Z,37.27
2019-02-08T08:20:21.481Z,32.13
2019-02-08T08:23:10.989Z,34.20
2019-02-08T08:26:03.055Z,35.27
2019-02-08T08:29:01.127Z,32.03
2019-02-08T08:31:50.603Z,31.10
2019-02-08T08:34:33.861Z,32.93
2019-02-08T08:37:36.410Z,34.83
2019-02-08T08:40:45.984Z,31.17
2019-02-08T08:43:37.183Z,30.40
2019-02-08T08:46:35.931Z,31.07
2019-02-08T08:49:35.333Z,31.40
2019-02-08T08:52:42.094Z,28.73
2019-02-08T08:56:00.290Z,31.37
2019-02-08T08:59:22.018Z,32.37
2019-02-08T09:02:47.632Z,33.00
2019-02-08T09:06:08.054Z,27.20
2019-02-08T09:09:21.732Z,27.87
2019-02-08T09:12:23.765Z,29.77
2019-02-08T09:15:48.347Z,30.67
2019-02-08T09:19:04.552Z,29.27
2019-02-08T09:22:09.527Z,31.80
2019-02-08T09:25:15.148Z,30.33
2019-02-08T09:28:20.894Z,31.40
2019-02-08T09:31:30.441Z,29.90
2019-02-08T09:34:42.984Z,27.87
2019-02-08T09:37:49.402Z,32.30
2019-02-08T09:41:17.393Z,31.13
2019-02-08T09:44:22.186Z,26.50
2019-02-08T09:47:30.241Z,29.57
2019-02-08T09:50:35.173Z,31.27
2019-02-08T09:53:38.037Z,37.03
2019-02-08T09:56:47.530Z,31.30
2019-02-08T09:59:39.084Z,32.77
2019-02-08T10:02:37.646Z,30.67
2019-02-08T10:05:48.453Z,31.27
2019-02-08T10:09:07.981Z,31.70
2019-02-08T10:12:14.322Z,30.87
2019-02-08T10:15:24.938Z,32.97
2019-02-08T10:18:48.736Z,36.60
2019-02-08T10:22:09.664Z,28.47
2019-02-08T10:25:30.381Z,30.10
2019-02-08T10:28:58.357Z,30.50
2019-02-08T10:31:53.547Z,25.43
2019-02-08T10:34:53.316Z,30.80
2019-02-08T10:38:00.596Z,28.33
2019-02-08T10:41:21.556Z,29.93
2019-02-08T10:44:21.665Z,25.93
2019-02-08T10:47:52.192Z,31.90
2019-02-08T10:50:52.748Z,31.17
2019-02-08T10:54:20.707Z,30.30
2019-02-08T10:57:36.003Z,30.30
2019-02-08T11:00:53.564Z,34.30
2019-02-08T11:04:05.568Z,34.47
2019-02-08T11:07:27.763Z,36.10
2019-02-08T11:10:45.237Z,38.00
2019-02-08T11:13:53.810Z,35.83
2019-02-08T11:17:06.685Z,34.30
2019-02-08T11:19:36.624Z,29.57
2019-02-08T11:22:08.664Z,30.63
2019-02-08T11:24:42.749Z,31.60
2019-02-08T11:27:14.350Z,31.97
2019-02-08T11:29:46.006Z,31.87
2019-02-08T11:32:17.743Z,36.67
2019-02-08T11:34:50.055Z,37.57
2019-02-08T11:37:21.927Z,36.93
2019-02-08T11:39:53.209Z,30.63
2019-02-08T11:42:24.670Z,32.00
2019-02-08T11:44:56.641Z,40.00
2019-02-08T11:47:27.987Z,35.53
2019-02-08T11:49:59.426Z,34.87
2019-02-08T11:52:36.110Z,32.40
2019-02-08T11:55:12.212Z,34.30
2019-02-08T11:57:45.182Z,30.67
2019-02-08T12:00:28.922Z,36.70
2019-02-08T12:03:00.486Z,36.07
2019-02-08T12:05:32.028Z,32.10
2019-02-08T12:08:04.045Z,33.57
2019-02-08T12:10:35.821Z,31.40
2019-02-08T12:13:09.276Z,30.73
2019-02-08T12:15:40.708Z,36.13
2019-02-08T12:18:12.927Z,30.60
2019-02-08T12:20:44.835Z,36.37
2019-02-08T12:23:17.083Z,29.20
2019-02-08T12:25:48.932Z,31.13
2019-02-08T12:28:22.294Z,29.07
2019-02-08T12:30:55.226Z,32.63
2019-02-08T12:33:27.070Z,31.93
2019-02-08T12:36:00.016Z,31.40
2019-02-08T12:38:31.693Z,32.03
2019-02-08T12:41:09.636Z,28.40
2019-02-08T12:43:36.629Z,32.60
2019-02-08T12:46:08.588Z,30.03
2019-02-08T12:48:40.263Z,36.17
2019-02-08T12:51:11.790Z,30.27
2019-02-08T12:53:43.529Z,33.57
2019-02-08T12:56:15.276Z,36.03
2019-02-08T12:58:47.292Z,31.17
2019-02-08T13:01:19.019Z,30.93
2019-02-08T13:03:50.765Z,33.87
2019-02-08T13:06:26.744Z,33.70
2019-02-08T13:08:58.289Z,35.83
2019-02-08T13:11:30.337Z,29.80
2019-02-08T13:14:03.066Z,30.63
2019-02-08T13:16:36.704Z,30.40
2019-02-08T13:19:09.927Z,29.13
2019-02-08T13:21:43.245Z,29.60
2019-02-08T13:24:15.125Z,27.27
2019-02-08T13:26:52.773Z,26.17
2019-02-08T13:29:20.531Z,27.10
2019-02-08T13:31:53.656Z,25.73
2019-02-08T13:34:25.629Z,27.70
2019-02-08T13:36:59.006Z,29.87
2019-02-08T13:39:30.629Z,25.43
2019-02-08T13:42:04.111Z,25.23
2019-02-08T13:44:36.315Z,30.00
2019-02-08T13:47:07.706Z,29.37
2019-02-08T13:49:40.652Z,25.97
2019-02-08T13:52:15.732Z,26.73
2019-02-08T13:54:47.469Z,25.70
2019-02-08T13:57:18.885Z,21.20
2019-02-08T13:59:50.634Z,28.30
2019-02-08T14:02:22.654Z,23.30
2019-02-08T14:04:54.112Z,26.13
2019-02-08T14:07:25.437Z,27.33
2019-02-08T14:09:56.971Z,33.17
2019-02-08T14:12:28.815Z,27.67
2019-02-08T14:15:01.836Z,25.50
2019-02-08T14:17:33.587Z,23.13
2019-02-08T14:20:07.048Z,25.83
2019-02-08T14:22:38.927Z,24.03
2019-02-08T14:25:12.224Z,23.43
2019-02-08T14:27:44.471Z,24.10
2019-02-08T14:30:28.591Z,20.73
2019-02-08T14:33:00.555Z,26.20
2019-02-08T14:35:32.205Z,29.10
2019-02-08T14:38:05.530Z,23.47
2019-02-08T14:40:37.003Z,26.97
2019-02-08T14:43:11.046Z,28.27
2019-02-08T14:45:42.867Z,25.50
2019-02-08T14:48:18.502Z,25.63
2019-02-08T14:50:51.087Z,26.73
2019-02-08T14:53:25.080Z,26.20
2019-02-08T14:55:56.734Z,25.03
2019-02-08T14:58:28.531Z,29.17
2019-02-08T15:01:03.158Z,33.33
2019-02-08T15:03:36.376Z,28.83
2019-02-08T15:06:08.008Z,30.27
2019-02-08T15:08:39.723Z,30.90
2019-02-08T15:11:11.708Z,31.90
2019-02-08T15:13:43.499Z,27.00
2019-02-08T15:16:15.370Z,30.67
2019-02-08T15:18:47.125Z,30.50
2019-02-08T15:21:18.676Z,28.70
2019-02-08T15:23:51.216Z,30.57
2019-02-08T15:26:23.244Z,31.07
2019-02-08T15:28:56.832Z,28.10
2019-02-08T15:31:28.472Z,31.50
2019-02-08T15:33:59.966Z,32.37
2019-02-08T15:36:31.338Z,31.37
2019-02-08T15:39:03.181Z,28.77
2019-02-08T15:41:35.106Z,31.53
2019-02-08T15:44:07.883Z,29.87
2019-02-08T15:46:39.739Z,32.80
2019-02-08T15:49:11.880Z,33.73
2019-02-08T15:51:44.038Z,30.90
2019-02-08T15:54:15.572Z,30.80
2019-02-08T15:56:47.118Z,34.13
2019-02-08T15:59:21.509Z,26.37
2019-02-08T16:01:53.173Z,29.73
2019-02-08T16:04:24.935Z,34.90
2019-02-08T16:06:59.238Z,36.43
2019-02-08T16:09:32.887Z,32.83
2019-02-08T16:12:05.173Z,28.93
2019-02-08T16:14:36.694Z,29.83
2019-02-08T16:17:09.585Z,30.93
2019-02-08T16:19:41.264Z,38.73
2019-02-08T16:22:13.288Z,32.37
2019-02-08T16:24:45.439Z,33.97
2019-02-08T16:27:17.149Z,32.30
2019-02-08T16:29:48.581Z,32.20
2019-02-08T16:32:20.741Z,35.67
2019-02-08T16:34:53.085Z,33.43
2019-02-08T16:37:25.183Z,35.07
2019-02-08T16:39:58.288Z,36.07
2019-02-08T16:42:30.926Z,34.60
2019-02-08T16:45:02.588Z,34.50
2019-02-08T16:47:36.089Z,35.67
2019-02-08T16:50:10.052Z,34.73
2019-02-08T16:52:41.873Z,36.30
2019-02-08T16:55:13.898Z,32.43
2019-02-08T16:57:47.768Z,32.60
2019-02-08T17:00:38.575Z,34.00
2019-02-08T17:03:12.438Z,34.67
2019-02-08T17:05:44.128Z,31.83
2019-02-08T17:08:15.652Z,39.57
2019-02-08T17:10:47.659Z,35.47
2019-02-08T17:13:26.051Z,34.47
2019-02-08T17:15:59.269Z,31.63
2019-02-08T17:18:30.762Z,37.17
2019-02-08T17:21:02.467Z,34.30
2019-02-08T17:23:34.515Z,28.00
2019-02-08T17:26:06.391Z,34.10
2019-02-08T17:28:39.725Z,30.80
2019-02-08T17:31:11.915Z,34.50
2019-02-08T17:33:43.360Z,32.43
2019-02-08T17:36:14.988Z,31.07
2019-02-08T17:38:48.104Z,32.47
2019-02-08T17:41:19.622Z,32.57
2019-02-08T17:43:56.861Z,35.53
2019-02-08T17:46:30.394Z,32.53
2019-02-08T17:49:01.808Z,33.77
2019-02-08T17:51:33.546Z,31.00
2019-02-08T17:54:05.467Z,34.70
2019-02-08T17:56:38.703Z,33.70
2019-02-08T17:59:12.407Z,30.33
2019-02-08T18:01:44.014Z,31.90
2019-02-08T18:04:15.829Z,31.83
2019-02-08T18:06:49.462Z,30.80
2019-02-08T18:09:21.401Z,29.70
2019-02-08T18:11:53.013Z,26.77
2019-02-08T18:14:28.002Z,30.63
2019-02-08T18:16:59.994Z,31.37
2019-02-08T18:19:33.115Z,34.40
2019-02-08T18:22:07.415Z,31.27
2019-02-08T18:24:39.199Z,24.77
2019-02-08T18:27:10.881Z,33.33
2019-02-08T18:29:42.721Z,30.90
2019-02-08T18:32:16.885Z,26.43
2019-02-08T18:34:48.466Z,28.93
2019-02-08T18:37:20.121Z,36.83
2019-02-08T18:39:52.319Z,33.77
2019-02-08T18:42:25.900Z,30.60
2019-02-08T18:44:57.302Z,29.03
2019-02-08T18:47:31.337Z,29.93
2019-02-08T18:50:06.883Z,29.27
2019-02-08T18:52:38.387Z,30.07
2019-02-08T18:55:11.826Z,25.27
2019-02-08T18:57:45.357Z,29.53
2019-02-08T19:00:23.341Z,28.77
2019-02-08T19:02:57.717Z,32.50
2019-02-08T19:05:29.624Z,28.00
2019-02-08T19:08:01.361Z,29.50
2019-02-08T19:10:33.039Z,34.00
2019-02-08T19:13:05.151Z,28.40
2019-02-08T19:15:37.192Z,32.87
2019-02-08T19:18:10.396Z,33.70
2019-02-08T19:20:42.003Z,30.50
2019-02-08T19:23:16.970Z,34.57
2019-02-08T19:25:48.601Z,37.20
2019-02-08T19:28:26.459Z,30.90
2019-02-08T19:30:55.393Z,33.63
2019-02-08T19:33:29.024Z,32.83
2019-02-08T19:36:01.074Z,30.93
2019-02-08T19:38:32.517Z,33.23
2019-02-08T19:41:05.545Z,37.83
2019-02-08T19:43:38.041Z,35.30
2019-02-08T19:46:10.538Z,36.57
2019-02-08T19:48:42.298Z,35.30
2019-02-08T19:51:14.110Z,31.20
2019-02-08T19:53:45.951Z,33.23
2019-02-08T19:56:17.375Z,37.27
2019-02-08T19:58:49.103Z,35.73
2019-02-08T20:01:20.681Z,40.03
2019-02-08T20:03:52.188Z,34.93
2019-02-08T20:06:23.921Z,35.23
2019-02-08T20:08:55.534Z,39.60
2019-02-08T20:11:27.350Z,38.77
2019-02-08T20:13:59.250Z,36.67
2019-02-08T20:16:32.442Z,33.23
2019-02-08T20:19:03.865Z,35.83
2019-02-08T20:21:35.566Z,39.00
2019-02-08T20:24:07.345Z,39.80
2019-02-08T20:26:40.791Z,33.80
2019-02-08T20:29:13.000Z,35.43
2019-02-08T20:31:44.641Z,41.03
2019-02-08T20:34:16.386Z,39.00
2019-02-08T20:36:48.026Z,39.43
2019-02-08T20:39:20.291Z,42.20
2019-02-08T20:41:57.681Z,41.67
2019-02-08T20:44:29.609Z,33.87
2019-02-08T20:47:01.483Z,37.53
2019-02-08T20:49:33.036Z,35.07
2019-02-08T20:52:05.854Z,39.63
2019-02-08T20:54:37.709Z,40.07
2019-02-08T20:57:09.730Z,43.67
2019-02-08T20:59:43.213Z,40.77
2019-02-08T21:02:14.688Z,36.40
2019-02-08T21:04:46.231Z,37.13
2019-02-08T21:07:17.927Z,39.20
2019-02-08T21:09:49.859Z,41.93
2019-02-08T21:12:21.445Z,34.23
2019-02-08T21:14:52.946Z,39.90
2019-02-08T21:17:24.907Z,34.73
2019-02-08T21:19:56.399Z,35.03
2019-02-08T21:22:30.544Z,34.73
2019-02-08T21:25:03.637Z,40.83
2019-02-08T21:27:35.857Z,37.50
2019-02-08T21:30:09.582Z,36.87
2019-02-08T21:32:42.403Z,33.47
2019-02-08T21:35:14.674Z,38.80
2019-02-08T21:37:46.775Z,33.57
2019-02-08T21:40:22.373Z,41.40
2019-02-08T21:42:57.393Z,38.40
2019-02-08T21:45:31.111Z,39.40
2019-02-08T21:48:02.938Z,36.00
2019-02-08T21:50:34.824Z,36.80
2019-02-08T21:53:08.691Z,39.23
2019-02-08T21:55:40.025Z,35.00
2019-02-08T21:58:13.245Z,39.20
2019-02-08T22:00:45.191Z,40.10
2019-02-08T22:03:17.224Z,38.70
2019-02-08T22:06:10.564Z,36.33
2019-02-08T22:08:45.225Z,37.97
2019-02-08T22:11:21.753Z,37.07
2019-02-08T22:13:54.988Z,37.57
2019-02-08T22:16:26.692Z,32.77
2019-02-08T22:18:58.119Z,41.07
2019-02-08T22:21:31.263Z,39.50
2019-02-08T22:24:02.979Z,43.83
2019-02-08T22:26:34.451Z,39.83
2019-02-08T22:29:13.726Z,35.53
2019-02-08T22:31:40.742Z,41.37
2019-02-08T22:34:12.578Z,38.53
2019-02-08T22:36:44.431Z,35.70
2019-02-08T22:39:17.508Z,37.57
2019-02-08T22:41:49.314Z,41.53
2019-02-08T22:44:21.531Z,41.63
2019-02-08T22:46:54.535Z,40.80
2019-02-08T22:49:25.990Z,37.93
2019-02-08T22:51:57.768Z,41.90
2019-02-08T22:54:30.333Z,37.00
2019-02-08T22:57:01.927Z,39.10
2019-02-08T22:59:33.530Z,35.37
2019-02-08T23:02:07.337Z,35.47
2019-02-08T23:04:40.530Z,33.03
2019-02-08T23:07:13.560Z,37.80
2019-02-08T23:09:45.339Z,33.20
2019-02-08T23:12:17.457Z,34.00
2019-02-08T23:14:48.966Z,40.30
2019-02-08T23:17:20.360Z,38.63
2019-02-08T23:19:51.954Z,37.17
2019-02-08T23:22:24.385Z,38.90
2019-02-08T23:24:56.339Z,36.67
2019-02-08T23:27:28.414Z,35.10
2019-02-08T23:30:02.696Z,35.73
2019-02-08T23:32:34.645Z,35.77
2019-02-08T23:35:07.592Z,36.27
2019-02-08T23:37:41.166Z,51.40
2019-02-08T23:40:13.925Z,40.57
2019-02-08T23:42:45.757Z,46.90
2019-02-08T23:45:17.686Z,54.90
2019-02-08T23:47:49.414Z,51.80
2019-02-08T23:50:22.116Z,53.20
2019-02-08T23:52:54.301Z,55.83
2019-02-08T23:55:25.571Z,49.77
2019-02-08T23:57:57.707Z,52.40
